sensor_id;sensor_type;location;lat;lon;timestamp;temperature;humidity
8792;DHT22;4432;50.890;4.744;2023-05-10T00:00:51;12.80;99.90
8792;DHT22;4432;50.890;4.744;2023-05-10T00:03:17;12.80;99.90
8792;DHT22;4432;50.890;4.744;2023-05-10T00:05:43;12.80;99.90
8792;DHT22;4432;50.890;4.744;2023-05-10T00:08:08;12.80;99.90
8792;DHT22;4432;50.890;4.744;2023-05-10T00:10:34;12.80;99.90
8792;DHT22;4432;50.890;4.744;2023-05-10T00:13:00;12.80;99.90
8792;DHT22;4432;50.890;4.744;2023-05-10T00:15:26;12.80;99.90
8792;DHT22;4432;50.890;4.744;2023-05-10T00:17:51;12.80;99.90
8792;DHT22;4432;50.890;4.744;2023-05-10T00:20:17;12.90;99.90
8792;DHT22;4432;50.890;4.744;2023-05-10T00:22:43;12.90;99.90
8792;DHT22;4432;50.890;4.744;2023-05-10T00:25:09;12.90;99.90
8792;DHT22;4432;50.890;4.744;2023-05-10T00:27:35;12.90;99.90
8792;DHT22;4432;50.890;4.744;2023-05-10T00:30:01;12.90;99.90
8792;DHT22;4432;50.890;4.744;2023-05-10T00:32:27;12.90;99.90
8792;DHT22;4432;50.890;4.744;2023-05-10T00:34:53;12.90;99.90
8792;DHT22;4432;50.890;4.744;2023-05-10T00:37:18;12.90;99.90
8792;DHT22;4432;50.890;4.744;2023-05-10T00:39:44;12.90;99.90
8792;DHT22;4432;50.890;4.744;2023-05-10T00:42:10;12.90;99.90
8792;DHT22;4432;50.890;4.744;2023-05-10T00:44:36;12.90;99.90
8792;DHT22;4432;50.890;4.744;2023-05-10T00:47:02;13.00;99.90
8792;DHT22;4432;50.890;4.744;2023-05-10T00:49:28;13.00;99.90
8792;DHT22;4432;50.890;4.744;2023-05-10T00:51:54;13.00;99.90
8792;DHT22;4432;50.890;4.744;2023-05-10T00:54:20;13.00;99.90
8792;DHT22;4432;50.890;4.744;2023-05-10T00:56:46;13.00;99.90
8792;DHT22;4432;50.890;4.744;2023-05-10T00:59:15;13.00;99.90
8792;DHT22;4432;50.890;4.744;2023-05-10T01:01:43;13.00;99.90
8792;DHT22;4432;50.890;4.744;2023-05-10T01:04:11;12.90;99.90
8792;DHT22;4432;50.890;4.744;2023-05-10T01:06:39;12.90;99.90
8792;DHT22;4432;50.890;4.744;2023-05-10T01:09:05;13.00;99.90
8792;DHT22;4432;50.890;4.744;2023-05-10T01:11:34;13.00;99.90
8792;DHT22;4432;50.890;4.744;2023-05-10T01:14:01;13.00;99.90
8792;DHT22;4432;50.890;4.744;2023-05-10T01:16:27;13.00;99.90
8792;DHT22;4432;50.890;4.744;2023-05-10T01:18:55;13.00;99.90
8792;DHT22;4432;50.890;4.744;2023-05-10T01:21:37;13.00;99.90
8792;DHT22;4432;50.890;4.744;2023-05-10T01:35:05;13.00;99.90
8792;DHT22;4432;50.890;4.744;2023-05-10T01:37:40;13.00;99.90
8792;DHT22;4432;50.890;4.744;2023-05-10T01:42:54;13.00;99.90
8792;DHT22;4432;50.890;4.744;2023-05-10T01:45:32;12.90;99.90
8792;DHT22;4432;50.890;4.744;2023-05-10T01:48:08;12.90;99.90
8792;DHT22;4432;50.890;4.744;2023-05-10T01:50:36;13.00;99.90
8792;DHT22;4432;50.890;4.744;2023-05-10T01:53:06;13.00;99.90
8792;DHT22;4432;50.890;4.744;2023-05-10T01:55:35;13.00;99.90
8792;DHT22;4432;50.890;4.744;2023-05-10T01:58:17;13.00;99.90
8792;DHT22;4432;50.890;4.744;2023-05-10T02:00:45;13.00;99.90
8792;DHT22;4432;50.890;4.744;2023-05-10T02:03:12;13.00;99.90
8792;DHT22;4432;50.890;4.744;2023-05-10T02:05:40;12.90;99.90
8792;DHT22;4432;50.890;4.744;2023-05-10T02:08:07;12.90;99.90
8792;DHT22;4432;50.890;4.744;2023-05-10T02:10:35;12.90;99.90
8792;DHT22;4432;50.890;4.744;2023-05-10T02:13:02;12.90;99.90
8792;DHT22;4432;50.890;4.744;2023-05-10T02:15:28;12.90;99.90
8792;DHT22;4432;50.890;4.744;2023-05-10T02:17:56;12.90;99.90
8792;DHT22;4432;50.890;4.744;2023-05-10T02:20:24;12.90;99.90
8792;DHT22;4432;50.890;4.744;2023-05-10T02:22:52;12.90;99.90
8792;DHT22;4432;50.890;4.744;2023-05-10T02:25:21;12.90;99.90
8792;DHT22;4432;50.890;4.744;2023-05-10T02:27:48;12.90;99.90
8792;DHT22;4432;50.890;4.744;2023-05-10T02:30:14;12.90;99.90
8792;DHT22;4432;50.890;4.744;2023-05-10T02:32:41;12.90;99.90
8792;DHT22;4432;50.890;4.744;2023-05-10T02:35:09;12.90;99.90
8792;DHT22;4432;50.890;4.744;2023-05-10T02:37:37;12.90;99.90
8792;DHT22;4432;50.890;4.744;2023-05-10T02:40:05;12.90;99.90
8792;DHT22;4432;50.890;4.744;2023-05-10T02:42:33;12.90;99.90
8792;DHT22;4432;50.890;4.744;2023-05-10T02:45:03;12.90;99.90
8792;DHT22;4432;50.890;4.744;2023-05-10T02:47:30;12.90;99.90
8792;DHT22;4432;50.890;4.744;2023-05-10T02:49:56;13.00;99.90
8792;DHT22;4432;50.890;4.744;2023-05-10T02:52:28;13.00;99.90
8792;DHT22;4432;50.890;4.744;2023-05-10T02:54:58;13.00;99.90
8792;DHT22;4432;50.890;4.744;2023-05-10T02:57:29;13.00;99.90
8792;DHT22;4432;50.890;4.744;2023-05-10T02:59:57;13.00;99.90
8792;DHT22;4432;50.890;4.744;2023-05-10T03:02:23;13.00;99.90
8792;DHT22;4432;50.890;4.744;2023-05-10T03:04:48;13.00;99.90
8792;DHT22;4432;50.890;4.744;2023-05-10T03:07:15;13.00;99.90
8792;DHT22;4432;50.890;4.744;2023-05-10T03:09:41;13.00;99.90
8792;DHT22;4432;50.890;4.744;2023-05-10T03:12:46;13.00;99.90
8792;DHT22;4432;50.890;4.744;2023-05-10T03:18:44;13.00;99.90
8792;DHT22;4432;50.890;4.744;2023-05-10T03:21:14;13.00;99.90
8792;DHT22;4432;50.890;4.744;2023-05-10T03:23:51;13.00;99.90
8792;DHT22;4432;50.890;4.744;2023-05-10T03:26:27;13.00;99.90
8792;DHT22;4432;50.890;4.744;2023-05-10T03:28:54;13.00;99.90
8792;DHT22;4432;50.890;4.744;2023-05-10T03:31:20;13.00;99.90
8792;DHT22;4432;50.890;4.744;2023-05-10T03:33:51;13.00;99.90
8792;DHT22;4432;50.890;4.744;2023-05-10T03:36:18;13.00;99.90
8792;DHT22;4432;50.890;4.744;2023-05-10T03:38:43;13.00;99.90
8792;DHT22;4432;50.890;4.744;2023-05-10T03:41:09;13.00;99.90
8792;DHT22;4432;50.890;4.744;2023-05-10T03:43:35;12.90;99.90
8792;DHT22;4432;50.890;4.744;2023-05-10T03:46:05;12.90;99.90
8792;DHT22;4432;50.890;4.744;2023-05-10T03:48:34;12.80;99.90
8792;DHT22;4432;50.890;4.744;2023-05-10T03:51:00;12.80;99.90
8792;DHT22;4432;50.890;4.744;2023-05-10T03:53:26;12.70;99.90
8792;DHT22;4432;50.890;4.744;2023-05-10T03:55:52;12.70;99.90
8792;DHT22;4432;50.890;4.744;2023-05-10T03:58:18;12.70;99.90
8792;DHT22;4432;50.890;4.744;2023-05-10T04:00:44;12.70;99.90
8792;DHT22;4432;50.890;4.744;2023-05-10T04:03:14;12.70;99.90
8792;DHT22;4432;50.890;4.744;2023-05-10T04:05:40;12.60;99.90
8792;DHT22;4432;50.890;4.744;2023-05-10T04:08:06;12.70;99.90
8792;DHT22;4432;50.890;4.744;2023-05-10T04:10:31;12.70;99.90
8792;DHT22;4432;50.890;4.744;2023-05-10T04:12:57;12.70;99.90
8792;DHT22;4432;50.890;4.744;2023-05-10T04:15:23;12.70;99.90
8792;DHT22;4432;50.890;4.744;2023-05-10T04:17:49;12.60;99.90
8792;DHT22;4432;50.890;4.744;2023-05-10T04:20:16;12.60;99.90
8792;DHT22;4432;50.890;4.744;2023-05-10T04:22:41;12.50;99.90
8792;DHT22;4432;50.890;4.744;2023-05-10T04:25:08;12.50;99.90
8792;DHT22;4432;50.890;4.744;2023-05-10T04:27:34;12.50;99.90
8792;DHT22;4432;50.890;4.744;2023-05-10T04:30:00;12.50;99.90
8792;DHT22;4432;50.890;4.744;2023-05-10T04:32:25;12.50;99.90
8792;DHT22;4432;50.890;4.744;2023-05-10T04:34:51;12.50;99.90
8792;DHT22;4432;50.890;4.744;2023-05-10T04:37:17;12.50;99.90
8792;DHT22;4432;50.890;4.744;2023-05-10T04:39:43;12.50;99.90
8792;DHT22;4432;50.890;4.744;2023-05-10T04:42:09;12.40;99.90
8792;DHT22;4432;50.890;4.744;2023-05-10T04:44:35;12.40;99.90
8792;DHT22;4432;50.890;4.744;2023-05-10T04:47:01;12.40;99.90
8792;DHT22;4432;50.890;4.744;2023-05-10T04:49:28;12.40;99.90
8792;DHT22;4432;50.890;4.744;2023-05-10T04:51:55;12.50;99.90
8792;DHT22;4432;50.890;4.744;2023-05-10T04:54:21;12.50;99.90
8792;DHT22;4432;50.890;4.744;2023-05-10T04:56:46;12.50;99.90
8792;DHT22;4432;50.890;4.744;2023-05-10T04:59:12;12.50;99.90
8792;DHT22;4432;50.890;4.744;2023-05-10T05:01:38;12.50;99.90
8792;DHT22;4432;50.890;4.744;2023-05-10T05:04:04;12.50;99.90
8792;DHT22;4432;50.890;4.744;2023-05-10T05:06:30;12.60;99.90
8792;DHT22;4432;50.890;4.744;2023-05-10T05:08:56;12.50;99.90
8792;DHT22;4432;50.890;4.744;2023-05-10T05:11:22;12.60;99.90
8792;DHT22;4432;50.890;4.744;2023-05-10T05:13:47;12.60;99.90
8792;DHT22;4432;50.890;4.744;2023-05-10T05:16:13;12.60;99.90
8792;DHT22;4432;50.890;4.744;2023-05-10T05:18:39;12.60;99.90
8792;DHT22;4432;50.890;4.744;2023-05-10T05:21:18;12.70;99.90
8792;DHT22;4432;50.890;4.744;2023-05-10T05:23:44;12.60;99.90
8792;DHT22;4432;50.890;4.744;2023-05-10T05:26:10;12.60;99.90
8792;DHT22;4432;50.890;4.744;2023-05-10T05:28:36;12.70;99.90
8792;DHT22;4432;50.890;4.744;2023-05-10T05:31:05;12.70;99.90
8792;DHT22;4432;50.890;4.744;2023-05-10T05:33:31;12.80;99.90
8792;DHT22;4432;50.890;4.744;2023-05-10T05:35:57;12.80;99.90
8792;DHT22;4432;50.890;4.744;2023-05-10T05:38:22;12.80;99.90
8792;DHT22;4432;50.890;4.744;2023-05-10T05:40:49;12.90;99.90
8792;DHT22;4432;50.890;4.744;2023-05-10T05:43:14;12.90;99.90
8792;DHT22;4432;50.890;4.744;2023-05-10T05:45:40;12.90;99.90
8792;DHT22;4432;50.890;4.744;2023-05-10T05:48:06;12.90;99.90
8792;DHT22;4432;50.890;4.744;2023-05-10T05:50:32;12.90;99.90
8792;DHT22;4432;50.890;4.744;2023-05-10T05:52:58;12.90;99.90
8792;DHT22;4432;50.890;4.744;2023-05-10T05:55:23;12.90;99.90
8792;DHT22;4432;50.890;4.744;2023-05-10T05:57:51;12.90;99.90
8792;DHT22;4432;50.890;4.744;2023-05-10T06:00:17;12.90;99.90
8792;DHT22;4432;50.890;4.744;2023-05-10T06:02:43;12.90;99.90
8792;DHT22;4432;50.890;4.744;2023-05-10T06:05:09;13.00;99.90
8792;DHT22;4432;50.890;4.744;2023-05-10T06:07:34;13.00;99.90
8792;DHT22;4432;50.890;4.744;2023-05-10T06:10:01;13.10;99.90
8792;DHT22;4432;50.890;4.744;2023-05-10T06:12:26;13.20;99.90
8792;DHT22;4432;50.890;4.744;2023-05-10T06:14:52;13.20;99.90
8792;DHT22;4432;50.890;4.744;2023-05-10T06:17:18;13.30;99.90
8792;DHT22;4432;50.890;4.744;2023-05-10T06:19:44;13.40;99.90
8792;DHT22;4432;50.890;4.744;2023-05-10T06:22:09;13.40;99.90
8792;DHT22;4432;50.890;4.744;2023-05-10T06:24:35;13.40;99.90
8792;DHT22;4432;50.890;4.744;2023-05-10T06:27:01;13.20;99.90
8792;DHT22;4432;50.890;4.744;2023-05-10T06:29:27;13.20;99.90
8792;DHT22;4432;50.890;4.744;2023-05-10T06:31:53;13.20;99.90
8792;DHT22;4432;50.890;4.744;2023-05-10T06:34:19;13.30;99.90
8792;DHT22;4432;50.890;4.744;2023-05-10T06:36:45;13.30;99.90
8792;DHT22;4432;50.890;4.744;2023-05-10T06:39:11;13.30;99.90
8792;DHT22;4432;50.890;4.744;2023-05-10T06:41:37;13.30;99.90
8792;DHT22;4432;50.890;4.744;2023-05-10T06:44:03;13.40;99.90
8792;DHT22;4432;50.890;4.744;2023-05-10T06:46:29;13.40;99.90
8792;DHT22;4432;50.890;4.744;2023-05-10T06:48:55;13.40;99.90
8792;DHT22;4432;50.890;4.744;2023-05-10T06:51:21;13.50;99.90
8792;DHT22;4432;50.890;4.744;2023-05-10T06:53:46;13.60;99.90
8792;DHT22;4432;50.890;4.744;2023-05-10T06:56:12;13.60;99.90
8792;DHT22;4432;50.890;4.744;2023-05-10T06:58:38;13.60;99.90
8792;DHT22;4432;50.890;4.744;2023-05-10T07:01:04;13.70;99.90
8792;DHT22;4432;50.890;4.744;2023-05-10T07:03:31;13.80;99.90
8792;DHT22;4432;50.890;4.744;2023-05-10T07:06:01;13.90;99.90
8792;DHT22;4432;50.890;4.744;2023-05-10T07:08:31;13.90;99.90
8792;DHT22;4432;50.890;4.744;2023-05-10T07:11:02;14.00;99.90
8792;DHT22;4432;50.890;4.744;2023-05-10T07:13:32;14.00;99.90
8792;DHT22;4432;50.890;4.744;2023-05-10T07:15:58;14.00;99.90
8792;DHT22;4432;50.890;4.744;2023-05-10T07:18:25;14.10;99.90
8792;DHT22;4432;50.890;4.744;2023-05-10T07:20:51;14.10;99.90
8792;DHT22;4432;50.890;4.744;2023-05-10T07:23:17;14.20;99.90
8792;DHT22;4432;50.890;4.744;2023-05-10T07:25:47;14.10;99.90
8792;DHT22;4432;50.890;4.744;2023-05-10T07:28:13;14.20;99.90
8792;DHT22;4432;50.890;4.744;2023-05-10T07:30:39;14.30;99.90
8792;DHT22;4432;50.890;4.744;2023-05-10T07:33:05;14.10;99.90
8792;DHT22;4432;50.890;4.744;2023-05-10T07:35:31;14.00;99.90
8792;DHT22;4432;50.890;4.744;2023-05-10T07:37:57;13.80;99.90
8792;DHT22;4432;50.890;4.744;2023-05-10T07:40:22;13.80;99.90
8792;DHT22;4432;50.890;4.744;2023-05-10T07:42:48;13.80;99.90
8792;DHT22;4432;50.890;4.744;2023-05-10T07:45:14;13.70;99.90
8792;DHT22;4432;50.890;4.744;2023-05-10T07:47:40;13.50;99.90
8792;DHT22;4432;50.890;4.744;2023-05-10T07:50:06;13.50;99.90
8792;DHT22;4432;50.890;4.744;2023-05-10T07:52:32;13.30;99.90
8792;DHT22;4432;50.890;4.744;2023-05-10T07:54:58;13.30;99.90
8792;DHT22;4432;50.890;4.744;2023-05-10T07:57:24;13.40;99.90
8792;DHT22;4432;50.890;4.744;2023-05-10T07:59:49;13.40;99.90
8792;DHT22;4432;50.890;4.744;2023-05-10T08:02:15;13.40;99.90
8792;DHT22;4432;50.890;4.744;2023-05-10T08:04:41;13.30;99.90
8792;DHT22;4432;50.890;4.744;2023-05-10T08:07:06;13.20;99.90
8792;DHT22;4432;50.890;4.744;2023-05-10T08:09:33;13.10;99.90
8792;DHT22;4432;50.890;4.744;2023-05-10T08:11:58;13.10;99.90
8792;DHT22;4432;50.890;4.744;2023-05-10T08:14:26;13.00;99.90
8792;DHT22;4432;50.890;4.744;2023-05-10T08:16:52;13.10;99.90
8792;DHT22;4432;50.890;4.744;2023-05-10T08:19:18;13.10;99.90
8792;DHT22;4432;50.890;4.744;2023-05-10T08:21:45;13.10;99.90
8792;DHT22;4432;50.890;4.744;2023-05-10T08:24:11;13.00;99.90
8792;DHT22;4432;50.890;4.744;2023-05-10T08:26:37;13.00;99.90
8792;DHT22;4432;50.890;4.744;2023-05-10T08:29:02;13.00;99.90
8792;DHT22;4432;50.890;4.744;2023-05-10T08:31:28;13.00;99.90
8792;DHT22;4432;50.890;4.744;2023-05-10T08:33:54;13.00;99.90
8792;DHT22;4432;50.890;4.744;2023-05-10T08:36:20;13.00;99.90
8792;DHT22;4432;50.890;4.744;2023-05-10T08:38:53;13.00;99.90
8792;DHT22;4432;50.890;4.744;2023-05-10T08:41:23;13.10;99.90
8792;DHT22;4432;50.890;4.744;2023-05-10T08:43:51;13.10;99.90
8792;DHT22;4432;50.890;4.744;2023-05-10T08:46:19;13.20;99.90
8792;DHT22;4432;50.890;4.744;2023-05-10T08:48:45;13.30;99.90
8792;DHT22;4432;50.890;4.744;2023-05-10T08:51:17;13.20;99.90
8792;DHT22;4432;50.890;4.744;2023-05-10T08:53:44;13.30;99.90
8792;DHT22;4432;50.890;4.744;2023-05-10T08:56:10;13.20;99.90
8792;DHT22;4432;50.890;4.744;2023-05-10T08:58:37;13.20;99.90
8792;DHT22;4432;50.890;4.744;2023-05-10T09:01:03;13.20;99.90
8792;DHT22;4432;50.890;4.744;2023-05-10T09:03:30;13.20;99.90
8792;DHT22;4432;50.890;4.744;2023-05-10T09:05:56;13.20;99.90
8792;DHT22;4432;50.890;4.744;2023-05-10T09:08:23;13.30;99.90
8792;DHT22;4432;50.890;4.744;2023-05-10T09:10:54;13.30;99.90
8792;DHT22;4432;50.890;4.744;2023-05-10T09:13:21;13.30;99.90
8792;DHT22;4432;50.890;4.744;2023-05-10T09:15:48;13.30;99.90
8792;DHT22;4432;50.890;4.744;2023-05-10T09:18:14;13.30;99.90
8792;DHT22;4432;50.890;4.744;2023-05-10T09:20:40;13.50;99.90
8792;DHT22;4432;50.890;4.744;2023-05-10T09:23:06;13.60;99.90
8792;DHT22;4432;50.890;4.744;2023-05-10T09:25:32;13.60;99.90
8792;DHT22;4432;50.890;4.744;2023-05-10T09:28:06;13.60;99.90
8792;DHT22;4432;50.890;4.744;2023-05-10T09:30:32;13.70;99.90
8792;DHT22;4432;50.890;4.744;2023-05-10T09:32:59;13.70;99.90
8792;DHT22;4432;50.890;4.744;2023-05-10T09:35:27;13.60;99.90
8792;DHT22;4432;50.890;4.744;2023-05-10T09:37:55;13.70;99.90
8792;DHT22;4432;50.890;4.744;2023-05-10T09:40:23;13.80;99.90
8792;DHT22;4432;50.890;4.744;2023-05-10T09:42:53;13.90;99.90
8792;DHT22;4432;50.890;4.744;2023-05-10T09:45:20;14.10;99.90
8792;DHT22;4432;50.890;4.744;2023-05-10T09:47:46;14.10;99.90
8792;DHT22;4432;50.890;4.744;2023-05-10T09:50:12;14.10;99.90
8792;DHT22;4432;50.890;4.744;2023-05-10T09:52:53;14.20;99.90
8792;DHT22;4432;50.890;4.744;2023-05-10T09:55:24;14.20;99.90
8792;DHT22;4432;50.890;4.744;2023-05-10T09:57:59;14.20;99.90
8792;DHT22;4432;50.890;4.744;2023-05-10T10:00:26;14.20;99.90
8792;DHT22;4432;50.890;4.744;2023-05-10T10:02:57;14.30;99.90
8792;DHT22;4432;50.890;4.744;2023-05-10T10:05:34;14.40;99.90
8792;DHT22;4432;50.890;4.744;2023-05-10T10:08:02;14.40;99.90
8792;DHT22;4432;50.890;4.744;2023-05-10T10:10:29;14.30;99.90
8792;DHT22;4432;50.890;4.744;2023-05-10T10:12:56;14.40;99.90
8792;DHT22;4432;50.890;4.744;2023-05-10T10:15:22;14.60;99.90
8792;DHT22;4432;50.890;4.744;2023-05-10T10:17:50;14.90;99.90
8792;DHT22;4432;50.890;4.744;2023-05-10T10:20:17;14.90;99.90
8792;DHT22;4432;50.890;4.744;2023-05-10T10:22:43;14.90;99.90
8792;DHT22;4432;50.890;4.744;2023-05-10T10:25:12;15.20;99.90
8792;DHT22;4432;50.890;4.744;2023-05-10T10:35:31;15.30;99.90
8792;DHT22;4432;50.890;4.744;2023-05-10T10:37:57;15.00;99.90
8792;DHT22;4432;50.890;4.744;2023-05-10T10:42:54;15.10;99.90
8792;DHT22;4432;50.890;4.744;2023-05-10T10:45:21;15.10;99.90
8792;DHT22;4432;50.890;4.744;2023-05-10T10:47:47;15.20;99.90
8792;DHT22;4432;50.890;4.744;2023-05-10T10:50:14;15.10;99.90
8792;DHT22;4432;50.890;4.744;2023-05-10T10:52:45;15.30;99.90
8792;DHT22;4432;50.890;4.744;2023-05-10T11:08:23;15.30;99.90
8792;DHT22;4432;50.890;4.744;2023-05-10T11:13:39;16.10;99.90
8792;DHT22;4432;50.890;4.744;2023-05-10T11:16:23;16.30;99.90
8792;DHT22;4432;50.890;4.744;2023-05-10T11:19:01;16.30;99.90
8792;DHT22;4432;50.890;4.744;2023-05-10T11:21:29;16.80;99.90
8792;DHT22;4432;50.890;4.744;2023-05-10T11:23:57;16.90;99.90
8792;DHT22;4432;50.890;4.744;2023-05-10T11:26:24;17.00;99.90
8792;DHT22;4432;50.890;4.744;2023-05-10T11:28:53;17.00;99.90
8792;DHT22;4432;50.890;4.744;2023-05-10T11:31:23;17.30;99.90
8792;DHT22;4432;50.890;4.744;2023-05-10T11:33:56;17.80;99.90
8792;DHT22;4432;50.890;4.744;2023-05-10T11:36:32;18.20;99.90
8792;DHT22;4432;50.890;4.744;2023-05-10T11:38:58;18.20;99.90
8792;DHT22;4432;50.890;4.744;2023-05-10T11:41:24;18.30;99.90
8792;DHT22;4432;50.890;4.744;2023-05-10T11:43:52;18.20;99.90
8792;DHT22;4432;50.890;4.744;2023-05-10T11:46:19;17.40;99.90
8792;DHT22;4432;50.890;4.744;2023-05-10T11:48:49;17.10;99.90
8792;DHT22;4432;50.890;4.744;2023-05-10T11:51:19;17.30;99.90
8792;DHT22;4432;50.890;4.744;2023-05-10T11:53:45;17.30;99.90
8792;DHT22;4432;50.890;4.744;2023-05-10T11:56:11;17.60;99.90
8792;DHT22;4432;50.890;4.744;2023-05-10T11:58:38;17.30;99.90
8792;DHT22;4432;50.890;4.744;2023-05-10T12:01:06;17.10;99.90
8792;DHT22;4432;50.890;4.744;2023-05-10T12:03:32;17.00;99.90
8792;DHT22;4432;50.890;4.744;2023-05-10T12:05:59;17.10;99.90
8792;DHT22;4432;50.890;4.744;2023-05-10T12:08:27;17.00;99.90
8792;DHT22;4432;50.890;4.744;2023-05-10T12:11:04;16.80;99.90
8792;DHT22;4432;50.890;4.744;2023-05-10T12:13:30;16.80;99.90
8792;DHT22;4432;50.890;4.744;2023-05-10T12:15:59;17.00;99.90
8792;DHT22;4432;50.890;4.744;2023-05-10T12:18:25;16.90;99.90
8792;DHT22;4432;50.890;4.744;2023-05-10T12:20:54;17.10;99.90
8792;DHT22;4432;50.890;4.744;2023-05-10T12:23:28;16.60;99.90
8792;DHT22;4432;50.890;4.744;2023-05-10T12:25:53;16.80;99.90
8792;DHT22;4432;50.890;4.744;2023-05-10T12:28:30;17.10;99.90
8792;DHT22;4432;50.890;4.744;2023-05-10T12:30:57;17.20;99.90
8792;DHT22;4432;50.890;4.744;2023-05-10T12:33:23;17.40;99.90
8792;DHT22;4432;50.890;4.744;2023-05-10T12:35:54;17.70;99.90
8792;DHT22;4432;50.890;4.744;2023-05-10T12:38:32;18.10;99.90
8792;DHT22;4432;50.890;4.744;2023-05-10T12:40:59;18.20;99.90
8792;DHT22;4432;50.890;4.744;2023-05-10T12:43:25;18.40;99.90
8792;DHT22;4432;50.890;4.744;2023-05-10T12:45:52;17.70;99.90
8792;DHT22;4432;50.890;4.744;2023-05-10T12:48:17;17.80;99.90
8792;DHT22;4432;50.890;4.744;2023-05-10T12:50:43;17.90;99.90
8792;DHT22;4432;50.890;4.744;2023-05-10T12:53:09;18.00;99.90
8792;DHT22;4432;50.890;4.744;2023-05-10T12:55:35;17.70;99.90
8792;DHT22;4432;50.890;4.744;2023-05-10T12:58:01;17.50;99.90
8792;DHT22;4432;50.890;4.744;2023-05-10T13:00:26;17.50;99.90
8792;DHT22;4432;50.890;4.744;2023-05-10T13:02:52;17.30;99.90
8792;DHT22;4432;50.890;4.744;2023-05-10T13:05:18;17.40;99.90
8792;DHT22;4432;50.890;4.744;2023-05-10T13:07:44;17.40;99.90
8792;DHT22;4432;50.890;4.744;2023-05-10T13:10:10;17.50;99.90
8792;DHT22;4432;50.890;4.744;2023-05-10T13:12:36;17.40;99.90
8792;DHT22;4432;50.890;4.744;2023-05-10T13:15:03;17.40;99.90
8792;DHT22;4432;50.890;4.744;2023-05-10T13:17:29;17.60;99.90
8792;DHT22;4432;50.890;4.744;2023-05-10T13:19:54;17.80;99.90
8792;DHT22;4432;50.890;4.744;2023-05-10T13:22:20;17.70;99.90
8792;DHT22;4432;50.890;4.744;2023-05-10T13:24:46;18.00;99.90
8792;DHT22;4432;50.890;4.744;2023-05-10T13:27:12;17.80;99.90
8792;DHT22;4432;50.890;4.744;2023-05-10T13:29:37;17.70;99.90
8792;DHT22;4432;50.890;4.744;2023-05-10T13:32:03;17.50;99.90
8792;DHT22;4432;50.890;4.744;2023-05-10T13:34:29;17.60;99.90
8792;DHT22;4432;50.890;4.744;2023-05-10T13:36:55;17.70;99.90
8792;DHT22;4432;50.890;4.744;2023-05-10T13:39:22;18.00;99.90
8792;DHT22;4432;50.890;4.744;2023-05-10T13:41:47;18.10;99.90
8792;DHT22;4432;50.890;4.744;2023-05-10T13:44:14;17.60;99.90
8792;DHT22;4432;50.890;4.744;2023-05-10T13:46:41;17.70;99.90
8792;DHT22;4432;50.890;4.744;2023-05-10T13:49:09;17.40;99.90
8792;DHT22;4432;50.890;4.744;2023-05-10T13:51:35;17.80;99.90
8792;DHT22;4432;50.890;4.744;2023-05-10T13:54:02;17.80;99.90
8792;DHT22;4432;50.890;4.744;2023-05-10T13:56:28;17.50;99.90
8792;DHT22;4432;50.890;4.744;2023-05-10T13:58:54;17.50;99.90
8792;DHT22;4432;50.890;4.744;2023-05-10T14:01:20;17.50;99.90
8792;DHT22;4432;50.890;4.744;2023-05-10T14:03:45;17.40;99.90
8792;DHT22;4432;50.890;4.744;2023-05-10T14:06:11;17.30;99.90
8792;DHT22;4432;50.890;4.744;2023-05-10T14:08:37;17.00;99.90
8792;DHT22;4432;50.890;4.744;2023-05-10T14:11:02;17.00;99.90
8792;DHT22;4432;50.890;4.744;2023-05-10T14:13:28;17.10;99.90
8792;DHT22;4432;50.890;4.744;2023-05-10T14:15:54;17.10;99.90
8792;DHT22;4432;50.890;4.744;2023-05-10T14:18:20;17.10;99.90
8792;DHT22;4432;50.890;4.744;2023-05-10T14:20:46;17.40;99.90
8792;DHT22;4432;50.890;4.744;2023-05-10T14:23:12;17.30;99.90
8792;DHT22;4432;50.890;4.744;2023-05-10T14:25:41;17.00;99.90
8792;DHT22;4432;50.890;4.744;2023-05-10T14:28:06;16.90;99.90
8792;DHT22;4432;50.890;4.744;2023-05-10T14:30:32;17.20;99.90
8792;DHT22;4432;50.890;4.744;2023-05-10T14:33:02;17.30;99.90
8792;DHT22;4432;50.890;4.744;2023-05-10T14:35:28;17.50;99.90
8792;DHT22;4432;50.890;4.744;2023-05-10T14:37:56;17.50;99.90
8792;DHT22;4432;50.890;4.744;2023-05-10T14:40:23;17.70;99.90
8792;DHT22;4432;50.890;4.744;2023-05-10T14:42:49;17.60;99.90
8792;DHT22;4432;50.890;4.744;2023-05-10T14:45:15;17.60;99.90
8792;DHT22;4432;50.890;4.744;2023-05-10T14:47:41;17.40;99.90
8792;DHT22;4432;50.890;4.744;2023-05-10T14:50:07;17.70;99.90
8792;DHT22;4432;50.890;4.744;2023-05-10T14:52:33;17.60;99.90
8792;DHT22;4432;50.890;4.744;2023-05-10T14:54:59;17.60;99.90
8792;DHT22;4432;50.890;4.744;2023-05-10T14:57:26;17.80;99.90
8792;DHT22;4432;50.890;4.744;2023-05-10T14:59:55;17.50;99.90
8792;DHT22;4432;50.890;4.744;2023-05-10T15:02:21;17.30;99.90
8792;DHT22;4432;50.890;4.744;2023-05-10T15:04:47;17.40;99.90
8792;DHT22;4432;50.890;4.744;2023-05-10T15:07:13;17.40;99.90
8792;DHT22;4432;50.890;4.744;2023-05-10T15:09:41;17.20;99.90
8792;DHT22;4432;50.890;4.744;2023-05-10T15:12:07;17.10;99.90
8792;DHT22;4432;50.890;4.744;2023-05-10T15:14:33;17.30;99.90
8792;DHT22;4432;50.890;4.744;2023-05-10T15:16:59;17.30;99.90
8792;DHT22;4432;50.890;4.744;2023-05-10T15:19:25;17.30;99.90
8792;DHT22;4432;50.890;4.744;2023-05-10T15:21:51;17.20;99.90
8792;DHT22;4432;50.890;4.744;2023-05-10T15:24:16;17.20;99.90
8792;DHT22;4432;50.890;4.744;2023-05-10T15:26:43;17.10;99.90
8792;DHT22;4432;50.890;4.744;2023-05-10T15:29:09;16.90;99.90
8792;DHT22;4432;50.890;4.744;2023-05-10T15:31:34;16.80;99.90
8792;DHT22;4432;50.890;4.744;2023-05-10T15:34:01;16.80;99.90
8792;DHT22;4432;50.890;4.744;2023-05-10T15:36:27;16.90;99.90
8792;DHT22;4432;50.890;4.744;2023-05-10T15:38:55;17.00;99.90
8792;DHT22;4432;50.890;4.744;2023-05-10T15:41:21;17.10;99.90
8792;DHT22;4432;50.890;4.744;2023-05-10T15:43:47;17.20;99.90
8792;DHT22;4432;50.890;4.744;2023-05-10T15:46:13;17.50;99.90
8792;DHT22;4432;50.890;4.744;2023-05-10T15:48:38;17.50;99.90
8792;DHT22;4432;50.890;4.744;2023-05-10T15:51:04;17.20;99.90
8792;DHT22;4432;50.890;4.744;2023-05-10T15:53:30;17.10;99.90
8792;DHT22;4432;50.890;4.744;2023-05-10T15:55:56;16.90;99.90
8792;DHT22;4432;50.890;4.744;2023-05-10T15:58:22;16.60;99.90
8792;DHT22;4432;50.890;4.744;2023-05-10T16:00:48;16.50;99.90
8792;DHT22;4432;50.890;4.744;2023-05-10T16:03:14;16.30;99.90
8792;DHT22;4432;50.890;4.744;2023-05-10T16:05:39;16.20;99.90
8792;DHT22;4432;50.890;4.744;2023-05-10T16:08:05;16.10;99.90
8792;DHT22;4432;50.890;4.744;2023-05-10T16:10:31;15.80;99.90
8792;DHT22;4432;50.890;4.744;2023-05-10T16:12:57;15.70;99.90
8792;DHT22;4432;50.890;4.744;2023-05-10T16:15:23;15.60;99.90
8792;DHT22;4432;50.890;4.744;2023-05-10T16:17:49;15.50;99.90
8792;DHT22;4432;50.890;4.744;2023-05-10T16:20:15;15.40;99.90
8792;DHT22;4432;50.890;4.744;2023-05-10T16:22:41;15.30;99.90
8792;DHT22;4432;50.890;4.744;2023-05-10T16:25:09;15.20;99.90
8792;DHT22;4432;50.890;4.744;2023-05-10T16:27:36;15.10;99.90
8792;DHT22;4432;50.890;4.744;2023-05-10T16:30:02;15.10;99.90
8792;DHT22;4432;50.890;4.744;2023-05-10T16:32:28;15.00;99.90
8792;DHT22;4432;50.890;4.744;2023-05-10T16:34:54;15.00;99.90
8792;DHT22;4432;50.890;4.744;2023-05-10T16:37:20;15.00;99.90
8792;DHT22;4432;50.890;4.744;2023-05-10T16:39:45;14.90;99.90
8792;DHT22;4432;50.890;4.744;2023-05-10T16:42:11;14.80;99.90
8792;DHT22;4432;50.890;4.744;2023-05-10T16:44:37;14.80;99.90